Lucy, New Mexico
Current Conditions -  °F | °C
As of 9:55 PM on Monday 20 Oct 2014 (Local Time) from K0E0 Reporting Station
Scattered Clouds Scattered Clouds  
Wind Chill: 49°   Ceiling: Unl
Heat Index: 49°   Visibility: 10mi
Dew Point: 46°   Wind: 3mph
Humidity: 90%   Direction: 80°E
Pressure: 30.25"   Gusts: NA
Location:  34.4464°N, 106.01°W
Report Text: K0E0 210355Z AUTO 08003KT 10SM SCT085 SCT110 09/08 A3025 RMK AO2 T00920077
Loading
Personal Weather Stations






























Interactive Weather Map
Tropical Storm Tracking
New forecast layout! Learn more

10-Day Weather Forecast

Advertisements
Track Severe Weather on mobile